Airfield :
LOGIN :

Register | Disclaimer

   EN    FR    IT 

 










Legend :    VFR   Marginal VFR   IFR   Intensive IFR   Very Intensive IFR
Visi :
Ceiling :
>= 8 km
>= 3000ft
5 to 8 km
1000 to 3000 ft
1500m to 5 km
500 to 1000 ft
800 to 1500m
200 to 500 ft
< 800m
< 200 ft
Symbols :   Thunderstorms  Fog  Heavy snow  Heavy precipitations  Wind > 20 kt
SIGMETs :     Misc.  Thunderstorms  Icing  Turbulence  Mountain Waves  Volcanic Ashes






- Airport Elevation : 1416 ft
- IATA code : ZRH


LSZH - Zurich

CURRENT METAR :
  • 150720Z VRB02KT 6000 0700S R14/P2000N R16/1200N R28/1200N R34/0350N PRFG FEW002 SCT300 11/10 Q1007 NOSIG

EXPIRED METARs :
  • 150650Z VRB03KT 0300 R14/0450D R16/0900D R28/0375N R34/0400N FG VV002 10/10 Q1007 BECMG 3000 FEW003
  • 150620Z VRB02KT 0300 R14/0400D R16/0600N R28/0700D R34/0650U FG VV001 10/09 Q1007 BECMG 3000
  • 150550Z VRB02KT 0300 R14/0500N R16/0400N R28/0550N R34/0600N FG VV001 10/10 Q1007 TEMPO 0400
  • 150520Z VRB02KT 0200 R14/0800U R16/0700U R28/0650U R34/0600N FG VV001 09/09 Q1007 TEMPO 0400
  • 150450Z 33003KT 300V040 0200 R14/0450N R16/0800U R28/0600U R34/0800U FG VV001 09/09 Q1008 TEMPO 0400
  • 150420Z 03003KT 340V060 0400 R14/0550N R16/0375D R28/0550D R34/0550N FG VV001 10/09 Q1008 NOSIG

TAF TAF LSZH
Valid from the 15 at 06:00 until the 16 at 12:00 UTC


150525Z 1506/1612 VRB03KT 0400 FG VV002 TX17/1512Z TN09/1506Z TN07/1604Z
BECMG 1506/1508 5000 BR NSC
BECMG 1509/1511 CAVOK
BECMG 1511/1514 25008KT 9999 BKN050
PROB40 1510/1514 30010KT
TEMPO 1512/1524 RA BKN020
PROB40
TEMPO 1514/1518 4000 RA BKN014
TEMPO 1514/1521 26014G28KT
BECMG 1602/1604 2000 BCFG FEW020
PROB40 1604/1607 0800 PRFG NSC
BECMG 1607/1609 CAVOK
ATIS : +41 43 816 2295 (DEP) +41 43 816 2294 (ARR)



MET'MAP, your aeronautical weather chart ! - Copyright ORBIFLY December 2007 - Disclaimer

ORBIFLY MET'MAP TEAM :

Programming & Development : Alexandra Zaïnal
Concept & Development : Baudouin d'Aumeries
Co-Development & Prog : Marc-Olivier Méhu
Technical & hardware support : Manuel Goepfert

Contact : metmap@orbifly.com




SOURCES & CREDITS :

   NOAA